createdAt,value
2023-03-21T00:04:50.967Z,56.22
2023-03-21T00:09:57.024Z,55.92
2023-03-21T00:15:12.940Z,56.08
2023-03-21T00:20:17.560Z,55.93
2023-03-21T00:25:19.162Z,56.06
2023-03-21T00:30:21.331Z,55.94
2023-03-21T00:35:53.618Z,56.14
2023-03-21T00:40:49.261Z,55.73
2023-03-21T00:45:51.576Z,55.79
2023-03-21T00:50:55.120Z,55.68
2023-03-21T00:55:56.739Z,55.75
2023-03-21T01:00:58.402Z,55.49
2023-03-21T01:06:07.554Z,55.32
2023-03-21T01:11:12.833Z,55.29
2023-03-21T01:16:14.525Z,55.17
2023-03-21T01:21:16.231Z,55.36
2023-03-21T01:26:17.952Z,55.44
2023-03-21T01:31:20.485Z,55.64
2023-03-21T01:36:25.568Z,55.43
2023-03-21T01:41:43.001Z,55.82
2023-03-21T01:47:09.301Z,57.30
2023-03-21T01:52:29.850Z,57.61
2023-03-21T01:58:03.917Z,58.51
2023-03-21T02:03:16.901Z,58.23
2023-03-21T02:08:25.869Z,58.28
2023-03-21T02:13:36.404Z,58.13
2023-03-21T02:19:17.641Z,58.15
2023-03-21T02:24:59.574Z,58.15
2023-03-21T02:30:30.581Z,57.78
2023-03-21T02:35:56.814Z,58.20
2023-03-21T02:41:18.363Z,58.42
2023-03-21T02:46:42.958Z,58.09
2023-03-21T02:51:47.750Z,57.84
2023-03-21T02:56:51.204Z,57.61
2023-03-21T03:01:55.308Z,57.42
2023-03-21T03:07:03.876Z,57.50
2023-03-21T03:12:35.558Z,57.70
2023-03-21T03:17:42.928Z,58.81
2023-03-21T03:23:02.188Z,57.97
2023-03-21T03:28:06.562Z,58.53
2023-03-21T03:33:10.560Z,58.07
2023-03-21T03:38:14.362Z,57.66
2023-03-21T03:43:24.467Z,57.80
2023-03-21T03:48:35.329Z,58.40
2023-03-21T03:53:46.365Z,59.19
2023-03-21T03:58:49.064Z,58.73
2023-03-21T04:03:56.434Z,58.70
2023-03-21T04:09:13.601Z,58.68
2023-03-21T04:14:20.844Z,59.15
2023-03-21T04:19:22.822Z,59.13
2023-03-21T04:24:24.445Z,59.34
2023-03-21T04:29:29.932Z,59.24
2023-03-21T04:34:31.590Z,59.19
2023-03-21T04:39:33.203Z,59.88
2023-03-21T04:44:34.890Z,60.10
2023-03-21T04:49:36.678Z,60.24
2023-03-21T04:54:38.281Z,60.78
2023-03-21T04:59:40.379Z,61.14
2023-03-21T05:04:42.226Z,61.28
2023-03-21T05:09:43.852Z,61.31
2023-03-21T05:14:45.609Z,61.36
2023-03-21T05:19:47.322Z,61.66
2023-03-21T05:24:50.421Z,61.84
2023-03-21T05:29:52.058Z,62.00
2023-03-21T05:34:53.737Z,61.94
2023-03-21T05:39:55.380Z,61.75
2023-03-21T05:44:57.000Z,61.64
2023-03-21T05:49:58.651Z,61.32
2023-03-21T05:55:00.246Z,61.19
2023-03-21T06:00:02.178Z,61.01
2023-03-21T06:05:04.105Z,60.70
2023-03-21T06:10:06.605Z,60.87
2023-03-21T06:15:09.087Z,60.95
2023-03-21T06:20:11.600Z,60.84
2023-03-21T06:25:13.646Z,60.18
2023-03-21T06:30:16.178Z,59.71
2023-03-21T06:35:18.086Z,59.14
2023-03-21T06:40:20.368Z,58.64
2023-03-21T06:45:22.188Z,58.48
2023-03-21T06:50:23.875Z,59.02
2023-03-21T06:55:27.135Z,59.33
2023-03-21T07:00:29.539Z,58.80
2023-03-21T07:05:31.602Z,58.45
2023-03-21T07:10:33.232Z,58.08
2023-03-21T07:15:38.306Z,57.91
2023-03-21T07:20:40.590Z,57.86
2023-03-21T07:25:42.551Z,57.75
2023-03-21T07:30:45.119Z,57.78
2023-03-21T07:35:46.835Z,57.07
2023-03-21T07:40:49.514Z,56.47
2023-03-21T07:45:51.157Z,56.42
2023-03-21T07:50:52.965Z,56.03
2023-03-21T07:55:58.353Z,56.31
2023-03-21T08:01:00.617Z,56.50
2023-03-21T08:06:02.481Z,56.42
2023-03-21T08:11:05.494Z,56.23
2023-03-21T08:16:08.854Z,56.01
2023-03-21T08:21:21.476Z,55.55
2023-03-21T08:26:26.604Z,55.05
2023-03-21T08:31:28.522Z,54.51
2023-03-21T08:36:31.608Z,54.80
2023-03-21T08:41:34.799Z,55.37
2023-03-21T08:46:37.415Z,56.19
2023-03-21T08:51:39.053Z,56.55
2023-03-21T08:56:40.777Z,57.00
2023-03-21T09:01:42.481Z,55.74
2023-03-21T09:06:45.689Z,56.00
2023-03-21T09:11:52.463Z,56.37
2023-03-21T09:16:54.264Z,56.78
2023-03-21T09:21:55.974Z,57.68
2023-03-21T09:26:58.065Z,58.60
2023-03-21T09:32:00.256Z,58.36
2023-03-21T09:37:02.332Z,58.38
2023-03-21T09:42:44.978Z,58.75
2023-03-21T09:47:57.137Z,58.64
2023-03-21T09:53:05.896Z,59.50
2023-03-21T09:58:31.114Z,59.66
2023-03-21T10:03:36.984Z,59.05
2023-03-21T10:08:45.605Z,59.27
2023-03-21T10:14:00.185Z,59.44
2023-03-21T10:19:10.408Z,59.23
2023-03-21T10:24:22.477Z,59.51
2023-03-21T10:29:29.168Z,59.96
2023-03-21T10:34:42.313Z,60.33
2023-03-21T10:39:47.560Z,59.88
2023-03-21T10:44:51.775Z,60.38
2023-03-21T10:50:07.436Z,60.57
2023-03-21T10:55:26.010Z,60.51
2023-03-21T11:00:34.086Z,59.95
2023-03-21T11:05:39.470Z,60.29
2023-03-21T11:10:59.115Z,61.08
2023-03-21T11:16:18.662Z,61.59
2023-03-21T11:21:22.231Z,60.74
2023-03-21T11:26:32.387Z,60.87
2023-03-21T11:31:41.568Z,61.53
2023-03-21T11:36:43.244Z,61.25
2023-03-21T11:41:51.246Z,61.35
2023-03-21T11:46:54.331Z,60.78
2023-03-21T11:51:58.748Z,61.32
2023-03-21T11:57:12.003Z,60.62
2023-03-21T12:02:35.094Z,60.27
2023-03-21T12:08:01.596Z,60.63
2023-03-21T12:13:18.640Z,59.75
2023-03-21T12:18:29.307Z,60.15
2023-03-21T12:23:30.988Z,60.09
2023-03-21T12:28:38.255Z,60.30
2023-03-21T12:34:04.529Z,61.93
2023-03-21T12:39:33.261Z,60.79
2023-03-21T12:44:42.032Z,61.64
2023-03-21T12:49:56.365Z,62.11
2023-03-21T12:55:07.750Z,62.65
2023-03-21T13:00:18.630Z,61.80
2023-03-21T13:05:29.121Z,62.42
2023-03-21T13:10:32.278Z,62.54
2023-03-21T13:15:48.950Z,61.78
2023-03-21T13:20:55.488Z,63.39
2023-03-21T13:25:58.122Z,63.41
2023-03-21T13:31:25.805Z,62.96
2023-03-21T13:36:32.215Z,62.32
2023-03-21T13:41:39.578Z,60.86
2023-03-21T13:46:54.673Z,60.73
2023-03-21T13:51:58.860Z,61.28
2023-03-21T13:57:05.369Z,62.77
2023-03-21T14:02:30.354Z,62.64
2023-03-21T14:07:41.168Z,63.33
2023-03-21T14:12:44.477Z,61.92
2023-03-21T14:17:56.669Z,61.97
2023-03-21T14:22:59.250Z,61.36
2023-03-21T14:28:04.752Z,59.92
2023-03-21T14:33:40.215Z,59.74
2023-03-21T14:38:42.021Z,60.22
2023-03-21T14:43:43.875Z,60.56
2023-03-21T14:48:45.934Z,60.71
2023-03-21T14:53:47.717Z,61.59
2023-03-21T14:58:51.071Z,60.56
2023-03-21T15:03:52.948Z,60.35
2023-03-21T15:09:01.197Z,59.79
2023-03-21T15:14:13.206Z,60.38
2023-03-21T15:19:18.013Z,60.46
2023-03-21T15:24:27.441Z,61.47
2023-03-21T15:29:29.620Z,61.80
2023-03-21T15:34:31.748Z,62.13
2023-03-21T15:39:36.095Z,61.97
2023-03-21T15:44:37.719Z,62.02
2023-03-21T15:49:41.794Z,61.66
2023-03-21T15:54:50.986Z,60.94
2023-03-21T15:59:59.533Z,61.56
2023-03-21T16:05:20.194Z,61.67
2023-03-21T16:10:29.792Z,60.90
2023-03-21T16:15:32.665Z,61.52
2023-03-21T16:20:37.982Z,61.88
2023-03-21T16:25:40.658Z,61.34
2023-03-21T16:30:42.276Z,61.09
2023-03-21T16:35:43.982Z,61.46
2023-03-21T16:40:45.616Z,62.23
2023-03-21T16:45:47.239Z,62.47
2023-03-21T16:50:48.978Z,62.41
2023-03-21T16:55:53.384Z,62.95
2023-03-21T17:00:56.462Z,62.74
2023-03-21T17:05:58.160Z,63.49
2023-03-21T17:10:59.984Z,64.64
2023-03-21T17:16:01.813Z,65.33
2023-03-21T17:21:09.125Z,65.78
2023-03-21T17:26:14.241Z,66.00
2023-03-21T17:31:18.928Z,65.61
2023-03-21T17:36:35.710Z,66.00
2023-03-21T17:41:37.391Z,66.14
2023-03-21T17:46:39.441Z,66.08
2023-03-21T17:51:41.650Z,65.85
2023-03-21T17:56:43.368Z,65.98
2023-03-21T18:01:45.148Z,66.22
2023-03-21T18:06:47.147Z,66.47
2023-03-21T18:11:49.057Z,66.81
2023-03-21T18:16:52.652Z,66.75
2023-03-21T18:21:54.290Z,66.76
2023-03-21T18:26:56.040Z,66.88
2023-03-21T18:32:07.031Z,67.01
2023-03-21T18:37:11.969Z,67.41
2023-03-21T18:42:19.111Z,67.85
2023-03-21T18:47:22.546Z,68.61
2023-03-21T18:52:26.454Z,68.66
2023-03-21T18:57:36.545Z,68.80
2023-03-21T19:02:48.496Z,68.65
2023-03-21T19:07:52.563Z,68.60
2023-03-21T19:12:54.941Z,68.71
2023-03-21T19:18:33.078Z,68.45
2023-03-21T19:23:21.059Z,68.58
2023-03-21T19:28:22.925Z,68.82
2023-03-21T19:33:25.278Z,69.00
2023-03-21T19:38:27.610Z,68.70
2023-03-21T19:43:33.174Z,68.31
2023-03-21T19:48:38.430Z,68.14
2023-03-21T19:53:40.554Z,67.88
2023-03-21T19:58:42.622Z,67.96
2023-03-21T20:03:44.683Z,68.06
2023-03-21T20:14:08.141Z,67.75
2023-03-21T20:19:12.672Z,67.68
2023-03-21T20:24:16.409Z,67.54
2023-03-21T20:34:40.345Z,67.55
2023-03-21T20:39:42.553Z,67.50
2023-03-21T20:45:00.960Z,67.50
2023-03-21T20:50:03.202Z,67.76
2023-03-21T20:55:08.877Z,67.88
2023-03-21T21:00:17.010Z,68.18
2023-03-21T21:05:30.092Z,68.04
2023-03-21T21:10:35.500Z,67.75
2023-03-21T21:15:39.555Z,67.56
2023-03-21T21:20:41.734Z,67.64
2023-03-21T21:25:43.436Z,67.70
2023-03-21T21:30:45.249Z,67.88
2023-03-21T21:35:48.637Z,67.93
2023-03-21T21:40:52.356Z,68.04
2023-03-21T21:45:54.735Z,68.06
2023-03-21T21:50:56.428Z,67.96
2023-03-21T21:55:58.086Z,68.36
2023-03-21T22:01:01.659Z,68.70
2023-03-21T22:06:04.696Z,69.07
2023-03-21T22:11:06.712Z,69.10
2023-03-21T22:16:08.602Z,69.24
2023-03-21T22:21:10.425Z,68.89
2023-03-21T22:26:12.171Z,69.22
2023-03-21T22:31:16.157Z,69.57
2023-03-21T22:36:17.854Z,68.90
2023-03-21T22:41:19.466Z,69.00
2023-03-21T22:46:21.214Z,68.60
2023-03-21T22:51:22.927Z,68.60
2023-03-21T22:56:24.610Z,68.13
2023-03-21T23:01:26.282Z,68.45
2023-03-21T23:06:27.940Z,68.50
2023-03-21T23:11:29.612Z,68.38
2023-03-21T23:16:31.914Z,68.49
2023-03-21T23:21:35.187Z,68.70
2023-03-21T23:26:37.003Z,68.40
2023-03-21T23:31:38.705Z,68.30
2023-03-21T23:36:40.829Z,68.99
2023-03-21T23:41:45.175Z,68.79
2023-03-21T23:46:46.830Z,68.60
2023-03-21T23:51:48.495Z,68.63
2023-03-21T23:56:50.360Z,68.42
